sensor_id;sensor_type;location;lat;lon;timestamp;temperature;humidity
5868;DHT22;2960;49.142;7.768;2024-01-25T00:01:50;12.00;65.50
5868;DHT22;2960;49.142;7.768;2024-01-25T00:04:18;11.90;66.20
5868;DHT22;2960;49.142;7.768;2024-01-25T00:06:46;11.90;65.50
5868;DHT22;2960;49.142;7.768;2024-01-25T00:09:13;11.90;65.60
5868;DHT22;2960;49.142;7.768;2024-01-25T00:11:42;11.90;65.60
5868;DHT22;2960;49.142;7.768;2024-01-25T00:14:12;11.90;66.50
5868;DHT22;2960;49.142;7.768;2024-01-25T00:16:40;11.90;65.80
5868;DHT22;2960;49.142;7.768;2024-01-25T00:19:08;11.90;65.80
5868;DHT22;2960;49.142;7.768;2024-01-25T00:21:35;11.90;66.60
5868;DHT22;2960;49.142;7.768;2024-01-25T00:24:08;11.90;66.00
5868;DHT22;2960;49.142;7.768;2024-01-25T00:26:35;11.90;66.10
5868;DHT22;2960;49.142;7.768;2024-01-25T00:29:04;11.90;66.10
5868;DHT22;2960;49.142;7.768;2024-01-25T00:31:31;11.90;66.10
5868;DHT22;2960;49.142;7.768;2024-01-25T00:33:58;11.90;66.10
5868;DHT22;2960;49.142;7.768;2024-01-25T00:36:26;11.90;66.50
5868;DHT22;2960;49.142;7.768;2024-01-25T00:38:54;11.90;66.20
5868;DHT22;2960;49.142;7.768;2024-01-25T00:41:22;11.90;66.30
5868;DHT22;2960;49.142;7.768;2024-01-25T00:43:50;11.90;66.30
5868;DHT22;2960;49.142;7.768;2024-01-25T00:46:19;11.80;66.30
5868;DHT22;2960;49.142;7.768;2024-01-25T00:48:47;11.80;66.40
5868;DHT22;2960;49.142;7.768;2024-01-25T00:51:16;11.80;66.40
5868;DHT22;2960;49.142;7.768;2024-01-25T00:53:47;11.80;66.50
5868;DHT22;2960;49.142;7.768;2024-01-25T00:56:15;11.80;66.60
5868;DHT22;2960;49.142;7.768;2024-01-25T00:58:43;11.80;67.40
5868;DHT22;2960;49.142;7.768;2024-01-25T01:01:11;11.70;66.60
5868;DHT22;2960;49.142;7.768;2024-01-25T01:03:40;11.70;66.60
5868;DHT22;2960;49.142;7.768;2024-01-25T01:06:09;11.70;66.70
5868;DHT22;2960;49.142;7.768;2024-01-25T01:08:37;11.70;66.70
5868;DHT22;2960;49.142;7.768;2024-01-25T01:11:04;11.70;66.70
5868;DHT22;2960;49.142;7.768;2024-01-25T01:13:32;11.70;66.80
5868;DHT22;2960;49.142;7.768;2024-01-25T01:15:59;11.70;66.80
5868;DHT22;2960;49.142;7.768;2024-01-25T01:18:26;11.70;66.80
5868;DHT22;2960;49.142;7.768;2024-01-25T01:20:54;11.70;66.80
5868;DHT22;2960;49.142;7.768;2024-01-25T01:23:22;11.70;66.90
5868;DHT22;2960;49.142;7.768;2024-01-25T01:25:49;11.70;66.90
5868;DHT22;2960;49.142;7.768;2024-01-25T01:28:16;11.70;67.00
5868;DHT22;2960;49.142;7.768;2024-01-25T01:30:43;11.70;67.00
5868;DHT22;2960;49.142;7.768;2024-01-25T01:33:11;11.60;66.90
5868;DHT22;2960;49.142;7.768;2024-01-25T01:35:38;11.60;67.00
5868;DHT22;2960;49.142;7.768;2024-01-25T01:38:09;11.60;67.10
5868;DHT22;2960;49.142;7.768;2024-01-25T01:40:36;11.60;67.10
5868;DHT22;2960;49.142;7.768;2024-01-25T01:43:03;11.60;67.10
5868;DHT22;2960;49.142;7.768;2024-01-25T01:45:31;11.60;67.20
5868;DHT22;2960;49.142;7.768;2024-01-25T01:47:59;11.60;67.20
5868;DHT22;2960;49.142;7.768;2024-01-25T01:50:27;11.60;67.20
5868;DHT22;2960;49.142;7.768;2024-01-25T01:52:57;11.60;67.20
5868;DHT22;2960;49.142;7.768;2024-01-25T01:55:26;11.60;67.20
5868;DHT22;2960;49.142;7.768;2024-01-25T01:57:53;11.60;67.20
5868;DHT22;2960;49.142;7.768;2024-01-25T02:00:21;11.60;67.20
5868;DHT22;2960;49.142;7.768;2024-01-25T02:02:48;11.60;67.20
5868;DHT22;2960;49.142;7.768;2024-01-25T02:05:15;11.60;67.10
5868;DHT22;2960;49.142;7.768;2024-01-25T02:07:42;11.60;67.10
5868;DHT22;2960;49.142;7.768;2024-01-25T02:10:10;11.50;67.00
5868;DHT22;2960;49.142;7.768;2024-01-25T02:12:39;11.60;67.10
5868;DHT22;2960;49.142;7.768;2024-01-25T02:15:06;11.50;67.00
5868;DHT22;2960;49.142;7.768;2024-01-25T02:17:34;11.50;67.10
5868;DHT22;2960;49.142;7.768;2024-01-25T02:20:01;11.50;67.10
5868;DHT22;2960;49.142;7.768;2024-01-25T02:22:30;11.50;67.10
5868;DHT22;2960;49.142;7.768;2024-01-25T02:24:57;11.50;67.10
5868;DHT22;2960;49.142;7.768;2024-01-25T02:27:24;11.50;67.00
5868;DHT22;2960;49.142;7.768;2024-01-25T02:29:51;11.50;67.00
5868;DHT22;2960;49.142;7.768;2024-01-25T02:32:18;11.50;66.90
5868;DHT22;2960;49.142;7.768;2024-01-25T02:34:45;11.50;66.90
5868;DHT22;2960;49.142;7.768;2024-01-25T02:37:12;11.50;66.90
5868;DHT22;2960;49.142;7.768;2024-01-25T02:39:42;11.50;66.90
5868;DHT22;2960;49.142;7.768;2024-01-25T02:42:09;11.50;66.90
5868;DHT22;2960;49.142;7.768;2024-01-25T02:44:37;11.50;66.90
5868;DHT22;2960;49.142;7.768;2024-01-25T02:47:04;11.50;66.80
5868;DHT22;2960;49.142;7.768;2024-01-25T02:49:32;11.50;66.80
5868;DHT22;2960;49.142;7.768;2024-01-25T02:51:59;11.50;66.80
5868;DHT22;2960;49.142;7.768;2024-01-25T02:54:26;11.50;66.80
5868;DHT22;2960;49.142;7.768;2024-01-25T02:56:54;11.50;66.80
5868;DHT22;2960;49.142;7.768;2024-01-25T02:59:21;11.50;66.80
5868;DHT22;2960;49.142;7.768;2024-01-25T03:01:49;11.50;66.70
5868;DHT22;2960;49.142;7.768;2024-01-25T03:04:16;11.50;66.80
5868;DHT22;2960;49.142;7.768;2024-01-25T03:06:43;11.50;66.70
5868;DHT22;2960;49.142;7.768;2024-01-25T03:09:10;11.50;66.70
5868;DHT22;2960;49.142;7.768;2024-01-25T03:11:37;11.50;66.60
5868;DHT22;2960;49.142;7.768;2024-01-25T03:14:09;11.50;66.70
5868;DHT22;2960;49.142;7.768;2024-01-25T03:16:36;11.50;66.70
5868;DHT22;2960;49.142;7.768;2024-01-25T03:19:03;11.50;66.60
5868;DHT22;2960;49.142;7.768;2024-01-25T03:21:30;11.50;66.50
5868;DHT22;2960;49.142;7.768;2024-01-25T03:23:57;11.50;66.50
5868;DHT22;2960;49.142;7.768;2024-01-25T03:26:26;11.50;66.40
5868;DHT22;2960;49.142;7.768;2024-01-25T03:28:54;11.50;66.40
5868;DHT22;2960;49.142;7.768;2024-01-25T03:31:23;11.40;66.30
5868;DHT22;2960;49.142;7.768;2024-01-25T03:33:50;11.40;66.30
5868;DHT22;2960;49.142;7.768;2024-01-25T03:36:17;11.40;66.30
5868;DHT22;2960;49.142;7.768;2024-01-25T03:38:44;11.40;66.20
5868;DHT22;2960;49.142;7.768;2024-01-25T03:41:11;11.40;66.30
5868;DHT22;2960;49.142;7.768;2024-01-25T03:43:38;11.40;66.30
5868;DHT22;2960;49.142;7.768;2024-01-25T03:46:05;11.40;66.20
5868;DHT22;2960;49.142;7.768;2024-01-25T03:48:34;11.50;66.30
5868;DHT22;2960;49.142;7.768;2024-01-25T03:51:01;11.40;66.10
5868;DHT22;2960;49.142;7.768;2024-01-25T03:53:28;11.40;66.10
5868;DHT22;2960;49.142;7.768;2024-01-25T03:55:55;11.40;66.10
5868;DHT22;2960;49.142;7.768;2024-01-25T03:58:22;11.40;66.10
5868;DHT22;2960;49.142;7.768;2024-01-25T04:00:50;11.40;66.10
5868;DHT22;2960;49.142;7.768;2024-01-25T04:03:17;11.40;66.10
5868;DHT22;2960;49.142;7.768;2024-01-25T04:05:45;11.40;66.20
5868;DHT22;2960;49.142;7.768;2024-01-25T04:08:13;11.40;66.50
5868;DHT22;2960;49.142;7.768;2024-01-25T04:10:40;11.40;66.20
5868;DHT22;2960;49.142;7.768;2024-01-25T04:13:07;11.40;66.20
5868;DHT22;2960;49.142;7.768;2024-01-25T04:15:34;11.30;66.10
5868;DHT22;2960;49.142;7.768;2024-01-25T04:18:01;11.30;66.20
5868;DHT22;2960;49.142;7.768;2024-01-25T04:20:27;11.30;66.10
5868;DHT22;2960;49.142;7.768;2024-01-25T04:22:56;11.30;66.20
5868;DHT22;2960;49.142;7.768;2024-01-25T04:25:23;11.30;66.20
5868;DHT22;2960;49.142;7.768;2024-01-25T04:27:50;11.30;66.20
5868;DHT22;2960;49.142;7.768;2024-01-25T04:30:17;11.30;66.20
5868;DHT22;2960;49.142;7.768;2024-01-25T04:32:45;11.30;66.30
5868;DHT22;2960;49.142;7.768;2024-01-25T04:35:12;11.30;66.30
5868;DHT22;2960;49.142;7.768;2024-01-25T04:37:39;11.30;66.30
5868;DHT22;2960;49.142;7.768;2024-01-25T04:40:09;11.30;66.40
5868;DHT22;2960;49.142;7.768;2024-01-25T04:42:37;11.20;66.40
5868;DHT22;2960;49.142;7.768;2024-01-25T04:45:05;11.20;66.50
5868;DHT22;2960;49.142;7.768;2024-01-25T04:47:33;11.10;66.50
5868;DHT22;2960;49.142;7.768;2024-01-25T04:50:00;11.10;66.60
5868;DHT22;2960;49.142;7.768;2024-01-25T04:52:27;11.10;66.60
5868;DHT22;2960;49.142;7.768;2024-01-25T04:54:55;11.10;66.60
5868;DHT22;2960;49.142;7.768;2024-01-25T04:57:23;11.00;66.50
5868;DHT22;2960;49.142;7.768;2024-01-25T04:59:50;11.00;66.60
5868;DHT22;2960;49.142;7.768;2024-01-25T05:02:17;11.00;66.60
5868;DHT22;2960;49.142;7.768;2024-01-25T05:04:44;11.00;66.70
5868;DHT22;2960;49.142;7.768;2024-01-25T05:07:11;11.00;66.70
5868;DHT22;2960;49.142;7.768;2024-01-25T05:09:38;10.90;67.30
5868;DHT22;2960;49.142;7.768;2024-01-25T05:12:06;10.90;66.60
5868;DHT22;2960;49.142;7.768;2024-01-25T05:14:34;10.90;66.60
5868;DHT22;2960;49.142;7.768;2024-01-25T05:17:02;10.90;66.60
5868;DHT22;2960;49.142;7.768;2024-01-25T05:19:29;10.80;66.70
5868;DHT22;2960;49.142;7.768;2024-01-25T05:21:56;10.80;67.40
5868;DHT22;2960;49.142;7.768;2024-01-25T05:24:23;10.80;66.60
5868;DHT22;2960;49.142;7.768;2024-01-25T05:26:50;10.70;66.60
5868;DHT22;2960;49.142;7.768;2024-01-25T05:29:17;10.70;66.60
5868;DHT22;2960;49.142;7.768;2024-01-25T05:31:45;10.60;66.60
5868;DHT22;2960;49.142;7.768;2024-01-25T05:34:14;10.60;66.70
5868;DHT22;2960;49.142;7.768;2024-01-25T05:36:41;10.60;66.80
5868;DHT22;2960;49.142;7.768;2024-01-25T05:39:08;10.50;66.70
5868;DHT22;2960;49.142;7.768;2024-01-25T05:41:35;10.50;66.70
5868;DHT22;2960;49.142;7.768;2024-01-25T05:44:02;10.50;66.80
5868;DHT22;2960;49.142;7.768;2024-01-25T05:46:30;10.40;66.70
5868;DHT22;2960;49.142;7.768;2024-01-25T05:48:58;10.40;66.80
5868;DHT22;2960;49.142;7.768;2024-01-25T05:51:25;10.30;66.70
5868;DHT22;2960;49.142;7.768;2024-01-25T05:53:53;10.30;66.90
5868;DHT22;2960;49.142;7.768;2024-01-25T05:56:20;10.20;66.80
5868;DHT22;2960;49.142;7.768;2024-01-25T05:58:47;10.20;66.90
5868;DHT22;2960;49.142;7.768;2024-01-25T06:01:14;10.10;66.70
5868;DHT22;2960;49.142;7.768;2024-01-25T06:03:41;10.10;66.70
5868;DHT22;2960;49.142;7.768;2024-01-25T06:06:10;10.10;66.70
5868;DHT22;2960;49.142;7.768;2024-01-25T06:08:37;10.00;66.70
5868;DHT22;2960;49.142;7.768;2024-01-25T06:11:04;10.00;66.70
5868;DHT22;2960;49.142;7.768;2024-01-25T06:13:31;9.90;67.80
5868;DHT22;2960;49.142;7.768;2024-01-25T06:15:58;9.90;67.80
5868;DHT22;2960;49.142;7.768;2024-01-25T06:18:26;9.80;67.70
5868;DHT22;2960;49.142;7.768;2024-01-25T06:20:53;9.80;67.80
5868;DHT22;2960;49.142;7.768;2024-01-25T06:23:22;9.70;67.70
5868;DHT22;2960;49.142;7.768;2024-01-25T06:25:49;9.70;67.90
5868;DHT22;2960;49.142;7.768;2024-01-25T06:28:16;9.60;67.80
5868;DHT22;2960;49.142;7.768;2024-01-25T06:30:45;9.70;68.00
5868;DHT22;2960;49.142;7.768;2024-01-25T06:33:12;9.50;67.80
5868;DHT22;2960;49.142;7.768;2024-01-25T06:35:41;9.50;67.90
5868;DHT22;2960;49.142;7.768;2024-01-25T06:38:08;9.40;67.80
5868;DHT22;2960;49.142;7.768;2024-01-25T06:40:37;9.40;67.90
5868;DHT22;2960;49.142;7.768;2024-01-25T06:43:04;9.40;68.70
5868;DHT22;2960;49.142;7.768;2024-01-25T06:45:31;9.30;67.90
5868;DHT22;2960;49.142;7.768;2024-01-25T06:47:58;9.30;68.00
5868;DHT22;2960;49.142;7.768;2024-01-25T06:50:26;9.20;67.90
5868;DHT22;2960;49.142;7.768;2024-01-25T06:52:53;9.20;68.00
5868;DHT22;2960;49.142;7.768;2024-01-25T06:55:20;9.20;68.00
5868;DHT22;2960;49.142;7.768;2024-01-25T06:57:49;9.10;67.80
5868;DHT22;2960;49.142;7.768;2024-01-25T07:00:16;9.10;67.90
5868;DHT22;2960;49.142;7.768;2024-01-25T07:02:46;9.10;67.90
5868;DHT22;2960;49.142;7.768;2024-01-25T07:05:13;9.00;67.80
5868;DHT22;2960;49.142;7.768;2024-01-25T07:07:41;9.00;67.70
5868;DHT22;2960;49.142;7.768;2024-01-25T07:10:08;9.00;67.70
5868;DHT22;2960;49.142;7.768;2024-01-25T07:12:35;8.90;67.60
5868;DHT22;2960;49.142;7.768;2024-01-25T07:15:05;8.90;67.60
5868;DHT22;2960;49.142;7.768;2024-01-25T07:17:32;8.80;67.50
5868;DHT22;2960;49.142;7.768;2024-01-25T07:19:59;8.80;67.50
5868;DHT22;2960;49.142;7.768;2024-01-25T07:22:26;8.80;67.50
5868;DHT22;2960;49.142;7.768;2024-01-25T07:24:54;8.80;67.60
5868;DHT22;2960;49.142;7.768;2024-01-25T07:27:23;8.70;67.50
5868;DHT22;2960;49.142;7.768;2024-01-25T07:29:51;8.70;67.50
5868;DHT22;2960;49.142;7.768;2024-01-25T07:32:19;8.60;67.40
5868;DHT22;2960;49.142;7.768;2024-01-25T07:34:46;8.60;67.40
5868;DHT22;2960;49.142;7.768;2024-01-25T07:37:14;8.50;67.40
5868;DHT22;2960;49.142;7.768;2024-01-25T07:39:41;8.50;67.40
5868;DHT22;2960;49.142;7.768;2024-01-25T07:42:11;8.50;67.40
5868;DHT22;2960;49.142;7.768;2024-01-25T07:44:38;8.50;67.50
5868;DHT22;2960;49.142;7.768;2024-01-25T07:47:05;8.40;67.50
5868;DHT22;2960;49.142;7.768;2024-01-25T07:49:34;8.40;67.50
5868;DHT22;2960;49.142;7.768;2024-01-25T07:52:01;8.40;67.60
5868;DHT22;2960;49.142;7.768;2024-01-25T07:54:29;8.40;67.60
5868;DHT22;2960;49.142;7.768;2024-01-25T07:56:56;8.40;67.60
5868;DHT22;2960;49.142;7.768;2024-01-25T07:59:23;8.30;67.60
5868;DHT22;2960;49.142;7.768;2024-01-25T08:01:51;8.30;67.60
5868;DHT22;2960;49.142;7.768;2024-01-25T08:04:18;8.30;67.50
5868;DHT22;2960;49.142;7.768;2024-01-25T08:06:46;8.30;67.50
5868;DHT22;2960;49.142;7.768;2024-01-25T08:09:13;8.30;67.40
5868;DHT22;2960;49.142;7.768;2024-01-25T08:11:41;8.30;67.40
5868;DHT22;2960;49.142;7.768;2024-01-25T08:14:08;8.30;67.40
5868;DHT22;2960;49.142;7.768;2024-01-25T08:16:35;8.40;67.50
5868;DHT22;2960;49.142;7.768;2024-01-25T08:19:02;8.40;67.40
5868;DHT22;2960;49.142;7.768;2024-01-25T08:21:30;8.40;67.50
5868;DHT22;2960;49.142;7.768;2024-01-25T08:23:58;8.40;67.60
5868;DHT22;2960;49.142;7.768;2024-01-25T08:26:26;8.40;67.60
5868;DHT22;2960;49.142;7.768;2024-01-25T08:28:53;8.40;67.60
5868;DHT22;2960;49.142;7.768;2024-01-25T08:31:20;8.50;67.80
5868;DHT22;2960;49.142;7.768;2024-01-25T08:33:47;8.60;68.60
5868;DHT22;2960;49.142;7.768;2024-01-25T08:36:17;8.70;67.80
5868;DHT22;2960;49.142;7.768;2024-01-25T08:38:45;8.80;67.80
5868;DHT22;2960;49.142;7.768;2024-01-25T08:41:14;8.90;67.80
5868;DHT22;2960;49.142;7.768;2024-01-25T08:43:42;9.10;68.50
5868;DHT22;2960;49.142;7.768;2024-01-25T08:46:09;9.20;67.70
5868;DHT22;2960;49.142;7.768;2024-01-25T08:48:36;9.40;67.70
5868;DHT22;2960;49.142;7.768;2024-01-25T08:51:03;9.50;67.70
5868;DHT22;2960;49.142;7.768;2024-01-25T08:53:31;9.70;67.70
5868;DHT22;2960;49.142;7.768;2024-01-25T08:55:58;9.90;67.50
5868;DHT22;2960;49.142;7.768;2024-01-25T08:58:31;10.10;66.20
5868;DHT22;2960;49.142;7.768;2024-01-25T09:00:58;10.10;65.90
5868;DHT22;2960;49.142;7.768;2024-01-25T09:03:27;10.30;66.80
5868;DHT22;2960;49.142;7.768;2024-01-25T09:05:56;10.40;66.10
5868;DHT22;2960;49.142;7.768;2024-01-25T09:08:23;10.50;66.10
5868;DHT22;2960;49.142;7.768;2024-01-25T09:10:51;10.70;66.10
5868;DHT22;2960;49.142;7.768;2024-01-25T09:13:18;10.80;66.70
5868;DHT22;2960;49.142;7.768;2024-01-25T09:15:46;10.90;65.80
5868;DHT22;2960;49.142;7.768;2024-01-25T09:18:14;11.00;65.60
5868;DHT22;2960;49.142;7.768;2024-01-25T09:20:41;11.10;65.40
5868;DHT22;2960;49.142;7.768;2024-01-25T09:23:13;11.10;65.20
5868;DHT22;2960;49.142;7.768;2024-01-25T09:25:40;11.10;65.30
5868;DHT22;2960;49.142;7.768;2024-01-25T09:28:08;11.20;65.70
5868;DHT22;2960;49.142;7.768;2024-01-25T09:30:37;11.40;66.10
5868;DHT22;2960;49.142;7.768;2024-01-25T09:33:06;11.60;66.00
5868;DHT22;2960;49.142;7.768;2024-01-25T09:35:33;11.90;66.40
5868;DHT22;2960;49.142;7.768;2024-01-25T09:38:01;12.20;66.30
5868;DHT22;2960;49.142;7.768;2024-01-25T09:40:28;12.50;66.70
5868;DHT22;2960;49.142;7.768;2024-01-25T09:42:55;12.70;65.60
5868;DHT22;2960;49.142;7.768;2024-01-25T09:45:24;13.00;65.60
5868;DHT22;2960;49.142;7.768;2024-01-25T09:47:51;13.20;65.50
5868;DHT22;2960;49.142;7.768;2024-01-25T09:50:20;13.40;65.30
5868;DHT22;2960;49.142;7.768;2024-01-25T09:52:53;13.60;65.20
5868;DHT22;2960;49.142;7.768;2024-01-25T09:55:24;13.90;65.30
5868;DHT22;2960;49.142;7.768;2024-01-25T09:57:53;14.20;65.10
5868;DHT22;2960;49.142;7.768;2024-01-25T10:00:22;14.40;64.90
5868;DHT22;2960;49.142;7.768;2024-01-25T10:02:50;14.50;64.40
5868;DHT22;2960;49.142;7.768;2024-01-25T10:05:18;14.60;63.90
5868;DHT22;2960;49.142;7.768;2024-01-25T10:07:46;14.60;63.60
5868;DHT22;2960;49.142;7.768;2024-01-25T10:10:14;14.60;63.70
5868;DHT22;2960;49.142;7.768;2024-01-25T10:12:42;14.60;63.60
5868;DHT22;2960;49.142;7.768;2024-01-25T10:15:10;14.60;63.30
5868;DHT22;2960;49.142;7.768;2024-01-25T10:17:38;14.60;63.20
5868;DHT22;2960;49.142;7.768;2024-01-25T10:20:06;14.50;64.00
5868;DHT22;2960;49.142;7.768;2024-01-25T10:22:38;14.50;63.30
5868;DHT22;2960;49.142;7.768;2024-01-25T10:25:12;14.50;63.30
5868;DHT22;2960;49.142;7.768;2024-01-25T10:27:40;14.70;63.70
5868;DHT22;2960;49.142;7.768;2024-01-25T10:30:11;15.00;63.70
5868;DHT22;2960;49.142;7.768;2024-01-25T10:32:41;15.20;63.30
5868;DHT22;2960;49.142;7.768;2024-01-25T10:35:09;15.40;63.40
5868;DHT22;2960;49.142;7.768;2024-01-25T10:37:39;15.70;63.30
5868;DHT22;2960;49.142;7.768;2024-01-25T10:40:09;16.00;63.10
5868;DHT22;2960;49.142;7.768;2024-01-25T10:42:37;16.40;63.00
5868;DHT22;2960;49.142;7.768;2024-01-25T10:45:05;16.70;62.50
5868;DHT22;2960;49.142;7.768;2024-01-25T10:47:35;17.10;62.30
5868;DHT22;2960;49.142;7.768;2024-01-25T10:50:05;17.30;61.60
5868;DHT22;2960;49.142;7.768;2024-01-25T10:52:34;17.40;61.30
5868;DHT22;2960;49.142;7.768;2024-01-25T10:55:05;17.40;60.80
5868;DHT22;2960;49.142;7.768;2024-01-25T10:57:35;17.30;60.20
5868;DHT22;2960;49.142;7.768;2024-01-25T11:00:06;17.00;59.60
5868;DHT22;2960;49.142;7.768;2024-01-25T11:02:35;16.80;59.70
5868;DHT22;2960;49.142;7.768;2024-01-25T11:05:05;16.50;59.60
5868;DHT22;2960;49.142;7.768;2024-01-25T11:07:41;16.30;59.50
5868;DHT22;2960;49.142;7.768;2024-01-25T11:10:15;16.10;59.50
5868;DHT22;2960;49.142;7.768;2024-01-25T11:12:50;15.90;59.40
5868;DHT22;2960;49.142;7.768;2024-01-25T11:15:21;15.80;59.40
5868;DHT22;2960;49.142;7.768;2024-01-25T11:17:53;15.90;59.80
5868;DHT22;2960;49.142;7.768;2024-01-25T11:20:22;16.10;59.80
5868;DHT22;2960;49.142;7.768;2024-01-25T11:22:55;16.30;59.50
5868;DHT22;2960;49.142;7.768;2024-01-25T11:25:27;16.50;59.40
5868;DHT22;2960;49.142;7.768;2024-01-25T11:27:55;16.70;59.10
5868;DHT22;2960;49.142;7.768;2024-01-25T11:30:22;17.10;59.10
5868;DHT22;2960;49.142;7.768;2024-01-25T11:32:50;17.40;58.70
5868;DHT22;2960;49.142;7.768;2024-01-25T11:35:17;17.70;58.40
5868;DHT22;2960;49.142;7.768;2024-01-25T11:37:45;18.10;58.30
5868;DHT22;2960;49.142;7.768;2024-01-25T11:40:14;18.40;57.90
5868;DHT22;2960;49.142;7.768;2024-01-25T11:42:44;18.80;57.60
5868;DHT22;2960;49.142;7.768;2024-01-25T11:45:12;19.00;56.60
5868;DHT22;2960;49.142;7.768;2024-01-25T11:47:41;19.30;56.50
5868;DHT22;2960;49.142;7.768;2024-01-25T11:50:10;19.50;56.00
5868;DHT22;2960;49.142;7.768;2024-01-25T11:52:38;19.50;55.70
5868;DHT22;2960;49.142;7.768;2024-01-25T11:55:07;19.60;55.30
5868;DHT22;2960;49.142;7.768;2024-01-25T11:57:37;19.50;54.80
5868;DHT22;2960;49.142;7.768;2024-01-25T12:00:09;19.40;54.80
5868;DHT22;2960;49.142;7.768;2024-01-25T12:02:39;19.20;54.90
5868;DHT22;2960;49.142;7.768;2024-01-25T12:05:10;19.20;54.80
5868;DHT22;2960;49.142;7.768;2024-01-25T12:07:39;19.10;54.60
5868;DHT22;2960;49.142;7.768;2024-01-25T12:10:08;18.90;54.40
5868;DHT22;2960;49.142;7.768;2024-01-25T12:12:37;18.90;54.60
5868;DHT22;2960;49.142;7.768;2024-01-25T12:15:06;18.90;54.70
5868;DHT22;2960;49.142;7.768;2024-01-25T12:17:38;18.90;54.40
5868;DHT22;2960;49.142;7.768;2024-01-25T12:20:06;18.90;54.00
5868;DHT22;2960;49.142;7.768;2024-01-25T12:22:36;18.90;54.00
5868;DHT22;2960;49.142;7.768;2024-01-25T12:25:07;19.00;53.70
5868;DHT22;2960;49.142;7.768;2024-01-25T12:27:36;19.10;53.90
5868;DHT22;2960;49.142;7.768;2024-01-25T12:30:04;19.10;53.60
5868;DHT22;2960;49.142;7.768;2024-01-25T12:32:35;19.00;53.20
5868;DHT22;2960;49.142;7.768;2024-01-25T12:35:03;18.90;53.20
5868;DHT22;2960;49.142;7.768;2024-01-25T12:37:30;18.80;53.10
5868;DHT22;2960;49.142;7.768;2024-01-25T12:39:57;18.50;53.00
5868;DHT22;2960;49.142;7.768;2024-01-25T12:42:24;18.30;53.10
5868;DHT22;2960;49.142;7.768;2024-01-25T12:44:53;18.00;53.10
5868;DHT22;2960;49.142;7.768;2024-01-25T12:47:20;17.80;53.30
5868;DHT22;2960;49.142;7.768;2024-01-25T12:49:49;17.70;53.30
5868;DHT22;2960;49.142;7.768;2024-01-25T12:52:16;17.60;53.30
5868;DHT22;2960;49.142;7.768;2024-01-25T12:54:43;17.50;53.40
5868;DHT22;2960;49.142;7.768;2024-01-25T12:57:10;17.40;53.50
5868;DHT22;2960;49.142;7.768;2024-01-25T12:59:38;17.30;53.40
5868;DHT22;2960;49.142;7.768;2024-01-25T13:02:07;17.20;54.00
5868;DHT22;2960;49.142;7.768;2024-01-25T13:04:34;17.00;53.40
5868;DHT22;2960;49.142;7.768;2024-01-25T13:07:03;16.80;53.50
5868;DHT22;2960;49.142;7.768;2024-01-25T13:09:30;16.60;53.70
5868;DHT22;2960;49.142;7.768;2024-01-25T13:11:59;16.50;53.80
5868;DHT22;2960;49.142;7.768;2024-01-25T13:14:27;16.40;53.80
5868;DHT22;2960;49.142;7.768;2024-01-25T13:16:54;16.30;53.90
5868;DHT22;2960;49.142;7.768;2024-01-25T13:19:21;16.20;54.00
5868;DHT22;2960;49.142;7.768;2024-01-25T13:21:48;16.10;54.00
5868;DHT22;2960;49.142;7.768;2024-01-25T13:24:18;15.90;54.00
5868;DHT22;2960;49.142;7.768;2024-01-25T13:26:45;15.70;54.10
5868;DHT22;2960;49.142;7.768;2024-01-25T13:29:12;15.60;54.30
5868;DHT22;2960;49.142;7.768;2024-01-25T13:31:39;15.40;54.40
5868;DHT22;2960;49.142;7.768;2024-01-25T13:34:06;15.20;54.50
5868;DHT22;2960;49.142;7.768;2024-01-25T13:36:33;15.10;54.70
5868;DHT22;2960;49.142;7.768;2024-01-25T13:39:00;14.90;54.80
5868;DHT22;2960;49.142;7.768;2024-01-25T13:41:30;14.90;55.00
5868;DHT22;2960;49.142;7.768;2024-01-25T13:43:57;14.70;55.00
5868;DHT22;2960;49.142;7.768;2024-01-25T13:46:24;14.60;55.10
5868;DHT22;2960;49.142;7.768;2024-01-25T13:48:52;14.50;55.20
5868;DHT22;2960;49.142;7.768;2024-01-25T13:51:19;14.50;55.50
5868;DHT22;2960;49.142;7.768;2024-01-25T13:53:46;14.40;55.60
5868;DHT22;2960;49.142;7.768;2024-01-25T13:56:15;14.30;55.70
5868;DHT22;2960;49.142;7.768;2024-01-25T13:58:44;14.20;55.80
5868;DHT22;2960;49.142;7.768;2024-01-25T14:01:11;14.20;55.90
5868;DHT22;2960;49.142;7.768;2024-01-25T14:03:38;14.10;56.00
5868;DHT22;2960;49.142;7.768;2024-01-25T14:06:06;14.10;56.10
5868;DHT22;2960;49.142;7.768;2024-01-25T14:08:36;14.10;56.20
5868;DHT22;2960;49.142;7.768;2024-01-25T14:11:03;14.00;56.30
5868;DHT22;2960;49.142;7.768;2024-01-25T14:13:32;14.00;56.40
5868;DHT22;2960;49.142;7.768;2024-01-25T14:16:00;14.00;56.50
5868;DHT22;2960;49.142;7.768;2024-01-25T14:18:36;13.90;56.60
5868;DHT22;2960;49.142;7.768;2024-01-25T14:21:04;13.80;56.60
5868;DHT22;2960;49.142;7.768;2024-01-25T14:23:31;13.80;56.80
5868;DHT22;2960;49.142;7.768;2024-01-25T14:25:58;13.70;56.90
5868;DHT22;2960;49.142;7.768;2024-01-25T14:28:25;13.60;57.00
5868;DHT22;2960;49.142;7.768;2024-01-25T14:30:53;13.60;57.20
5868;DHT22;2960;49.142;7.768;2024-01-25T14:33:21;13.50;57.40
5868;DHT22;2960;49.142;7.768;2024-01-25T14:35:49;13.40;58.10
5868;DHT22;2960;49.142;7.768;2024-01-25T14:38:16;13.40;57.90
5868;DHT22;2960;49.142;7.768;2024-01-25T14:40:44;13.30;58.00
5868;DHT22;2960;49.142;7.768;2024-01-25T14:43:11;13.20;58.20
5868;DHT22;2960;49.142;7.768;2024-01-25T14:45:39;13.20;58.90
5868;DHT22;2960;49.142;7.768;2024-01-25T14:48:06;13.20;58.50
5868;DHT22;2960;49.142;7.768;2024-01-25T14:50:34;13.20;58.60
5868;DHT22;2960;49.142;7.768;2024-01-25T14:53:02;13.20;58.70
5868;DHT22;2960;49.142;7.768;2024-01-25T14:55:29;13.10;58.70
5868;DHT22;2960;49.142;7.768;2024-01-25T14:57:56;13.10;58.90
5868;DHT22;2960;49.142;7.768;2024-01-25T15:00:23;13.10;59.10
5868;DHT22;2960;49.142;7.768;2024-01-25T15:02:50;13.00;59.20
5868;DHT22;2960;49.142;7.768;2024-01-25T15:05:18;13.00;59.40
5868;DHT22;2960;49.142;7.768;2024-01-25T15:07:46;13.00;59.50
5868;DHT22;2960;49.142;7.768;2024-01-25T15:10:13;13.00;59.60
5868;DHT22;2960;49.142;7.768;2024-01-25T15:12:41;13.00;59.80
5868;DHT22;2960;49.142;7.768;2024-01-25T15:15:09;12.90;59.90
5868;DHT22;2960;49.142;7.768;2024-01-25T15:17:36;12.90;60.20
5868;DHT22;2960;49.142;7.768;2024-01-25T15:20:04;12.80;60.30
5868;DHT22;2960;49.142;7.768;2024-01-25T15:22:32;12.80;60.70
5868;DHT22;2960;49.142;7.768;2024-01-25T15:25:01;12.80;60.80
5868;DHT22;2960;49.142;7.768;2024-01-25T15:27:28;12.80;61.00
5868;DHT22;2960;49.142;7.768;2024-01-25T15:29:56;12.70;61.10
5868;DHT22;2960;49.142;7.768;2024-01-25T15:32:25;12.70;61.50
5868;DHT22;2960;49.142;7.768;2024-01-25T15:34:53;12.60;61.50
5868;DHT22;2960;49.142;7.768;2024-01-25T15:37:20;12.60;61.70
5868;DHT22;2960;49.142;7.768;2024-01-25T15:39:47;12.60;61.90
5868;DHT22;2960;49.142;7.768;2024-01-25T15:42:15;12.60;62.00
5868;DHT22;2960;49.142;7.768;2024-01-25T15:44:43;12.60;62.10
5868;DHT22;2960;49.142;7.768;2024-01-25T15:47:10;12.60;62.20
5868;DHT22;2960;49.142;7.768;2024-01-25T15:49:38;12.60;62.30
5868;DHT22;2960;49.142;7.768;2024-01-25T15:52:05;12.60;62.50
5868;DHT22;2960;49.142;7.768;2024-01-25T15:54:32;12.60;62.50
5868;DHT22;2960;49.142;7.768;2024-01-25T15:56:59;12.60;62.60
5868;DHT22;2960;49.142;7.768;2024-01-25T15:59:28;12.60;62.80
5868;DHT22;2960;49.142;7.768;2024-01-25T16:01:55;12.60;63.60
5868;DHT22;2960;49.142;7.768;2024-01-25T16:04:22;12.50;62.90
5868;DHT22;2960;49.142;7.768;2024-01-25T16:06:49;12.50;63.10
5868;DHT22;2960;49.142;7.768;2024-01-25T16:09:16;12.50;63.20